This is the latest recevied weather packets stored in our database for station/object KC8YYF. If no packets are shown the sender has not sent any weather packets the latest 10 day(s).
| Time | Temp. | Humidity | Pressure | Rain* | Wind** | Luminosity | Snow |
|---|---|---|---|---|---|---|---|
| 1777735083 | 5.56° C | 76% | 1017.5 hPa | 0 mm | - | 28 W/m² | - |
| 1777734779 | 6.11° C | 72% | 1017.5 hPa | 0 mm | - | 17 W/m² | - |
| 1777734477 | 6.67° C | 68% | 1017.3 hPa | 0 mm | - | 49 W/m² | - |
| 1777734174 | 7.22° C | 66% | 1017.2 hPa | 0 mm | - | 520 W/m² | - |
| 1777733870 | 6.11° C | 74% | 1017.4 hPa | 0 mm | - | 528 W/m² | - |
| 1777733567 | 5° C | 75% | 1017.5 hPa | 0 mm | - | 83 W/m² | - |
| 1777733263 | 5.56° C | 75% | 1017.4 hPa | 0 mm | - | 81 W/m² | - |
| 1777732960 | 5.56° C | 74% | 1017.4 hPa | 0 mm | - | 66 W/m² | - |
| 1777732655 | 5.56° C | 73% | 1017.3 hPa | 0 mm | - | 51 W/m² | - |
| 1777732353 | 5.56° C | 73% | 1017.4 hPa | 0 mm | - | 65 W/m² | - |
| 1777732051 | 5.56° C | 71% | 1017.3 hPa | 0 mm | - | 70 W/m² | - |
| 1777731747 | 5.56° C | 71% | 1017.3 hPa | 0 mm | - | 62 W/m² | - |
| 1777731444 | 6.11° C | 71% | 1017.4 hPa | 0 mm | - | 43 W/m² | - |
| 1777731143 | 6.11° C | 70% | 1017.1 hPa | 0 mm | - | 79 W/m² | - |
| 1777730841 | 6.67° C | 69% | 1017.3 hPa | 0 mm | - | 66 W/m² | - |
| 1777730538 | 6.11° C | 71% | 1017.2 hPa | 0 mm | - | 351 W/m² | - |
| 1777730233 | 5.56° C | 72% | 1017.1 hPa | 0 mm | - | 428 W/m² | - |
| 1777729931 | 6.11° C | 75% | 1017.1 hPa | 0 mm | - | 43 W/m² | - |
| 1777729626 | 7.22° C | 72% | 1017.1 hPa | 0 mm | - | 239 W/m² | - |
| 1777729324 | 6.67° C | 71% | 1017.2 hPa | 0 mm | - | 343 W/m² | - |
| 1777729020 | 6.11° C | 76% | 1017.1 hPa | 0 mm | - | 335 W/m² | - |
| 1777728717 | 6.11° C | 78% | 1017.3 hPa | 0 mm | - | 65 W/m² | - |
| 1777728413 | 5.56° C | 78% | 1017.2 hPa | 0 mm | - | 53 W/m² | - |
| 1777728110 | 5.56° C | 78% | 1017.2 hPa | 0 mm | - | 275 W/m² | - |
| 1777727808 | 5.56° C | 82% | 1017.2 hPa | 0 mm | - | 246 W/m² | - |
* Rain latest hour (hover to see other rain measurements)
** Current wind speed in m/s (hover to see current wind gust speed)